CheckWX is a tool to help pilots better visualize weather data.  It is not intended as a substitute for an official pre-flight weather briefing.

12:31:31 UTC

KIGM METAR
Kingman Airport
Kingman, Arizona, USA
Current

41 mins ago

KIGM 131151Z AUTO 00000KT 10SM CLR 02/M01 A3022 RMK AO2 SLP207 T00171006 10056 20017 55000
Observed
Dec-13 @ 11:51 UTC
Visibility
10 SM
Flight Rules
VFR
Cloud Levels
  • Clear skies
Temperature
C / 36°F
Dewpoint
-1°C / 30°F
Humidity
81%
Altimeter
30.22" Hg
Pressure
1023.42 hPa
Previous

2 hours ago

KIGM 131051Z AUTO 00000KT 10SM CLR 03/00 A3022 RMK AO2 SLP205 T00280000
Observed
Dec-13 @ 10:51 UTC
Visibility
10 SM
Flight Rules
VFR
Cloud Levels
  • Clear skies
Temperature
C / 37°F
Dewpoint
C / 32°F
Humidity
81%
Altimeter
30.22" Hg
Pressure
1023.42 hPa
Previous

3 hours ago

KIGM 130951Z AUTO 16004KT 10SM CLR 02/00 A3022 RMK AO2 SLP201 T00220000
Observed
Dec-13 @ 09:51 UTC
Wind
  • 160° at 4 KTS
Visibility
10 SM
Flight Rules
VFR
Cloud Levels
  • Clear skies
Temperature
C / 36°F
Dewpoint
C / 32°F
Humidity
87%
Altimeter
30.22" Hg
Pressure
1023.42 hPa